Latest Weather Observations for Moruya Airport

IDN60901

Issued at 8:21 pm EDT Tuesday 23 October 2018 (issued every 10 minutes, with the page automatically refreshed every 10 minutes)

About weather observations | Map of Canberra area stations | Latest observations for Canberra area | Other Formats
Station Details ID: 069148 Name: MORUYA AIRPORT AWS Lat: -35.90 Lon: 150.14 Height: 4.0 m
Data from the previous 72 hours. | See also: Recent months at Moruya Airport
Date/Time
EDT
Temp
°C
App
Temp
°C
Dew
Point
°C
Rel
Hum
%
Delta-T
°C
Wind Press
QNH
hPa
Press
MSL
hPa
Rain since
9am
mm
Dir  Spd
km/h
Gust
km/h
Spd
kts
Gust
kts
23/08:00pm 16.8 18.2 14.3 85 1.4 CALM 0 7 0 4 1009.6 1009.5 0.0
23/07:30pm 18.2 19.0 14.7 80 2.0 N 4 6 2 3 1009.2 1009.1 0.0
23/07:00pm 19.8 21.0 14.8 73 2.9 NNE 2 7 1 4 1008.7 1008.6 0.0
23/06:30pm 20.1 20.5 14.7 71 3.2 NNE 6 9 3 5 1008.4 1008.3 0.0
23/06:00pm 21.1 21.4 14.5 66 3.9 NE 6 11 3 6 1007.9 1007.8 0.0
23/05:30pm 20.1 17.4 15.7 76 2.6 ENE 24 28 13 15 1007.8 1007.7 0.0
23/05:00pm 20.7 17.6 15.5 72 3.1 NE 26 33 14 18 1007.7 1007.6 0.0
23/04:30pm 21.0 17.2 15.8 72 3.1 NE 30 39 16 21 1007.5 1007.4 0.0
23/04:00pm 22.4 19.3 15.7 66 4.0 NE 26 37 14 20 1007.6 1007.5 0.0
23/03:30pm 22.3 19.3 14.9 63 4.4 NE 24 30 13 16 1007.8 1007.7 0.0
23/03:00pm 21.4 18.1 16.1 72 3.2 NE 28 33 15 18 1008.1 1008.0 0.0
23/02:30pm 21.9 19.9 15.5 67 3.8 NE 20 28 11 15 1008.7 1008.6 0.0
23/02:00pm 21.1 17.4 16.1 73 3.0 NE 30 39 16 21 1009.0 1008.9 0.0
23/01:30pm 20.1 16.3 15.7 76 2.6 NE 30 41 16 22 1009.4 1009.3 0.0
23/01:00pm 20.5 17.1 15.9 75 2.8 NE 28 37 15 20 1009.8 1009.7 0.0
23/12:30pm 20.4 17.4 15.8 75 2.7 NE 26 32 14 17 1010.4 1010.3 0.0
23/12:00pm 20.0 16.9 15.6 76 2.6 NNE 26 32 14 17 1010.9 1010.8 0.0
23/11:30am 19.9 17.1 15.3 75 2.7 NE 24 30 13 16 1011.4 1011.3 0.0
23/11:00am 19.2 17.5 15.7 80 2.1 ENE 19 22 10 12 1012.1 1012.0 0.0
23/10:30am 18.8 17.1 15.7 82 1.8 NE 19 22 10 12 1012.4 1012.3 0.0
23/10:00am 18.4 17.4 15.6 84 1.6 ENE 15 17 8 9 1012.8 1012.7 0.0
23/09:30am 18.3 17.7 15.7 85 1.5 ENE 13 15 7 8 1013.1 1013.0 0.0
23/09:00am 16.8 16.4 15.2 90 0.9 NE 11 13 6 7 1013.4 1013.3 0.0
23/08:33am 15.4 15.6 14.6 95 0.5 NE 7 11 4 6 1013.5 1013.4 0.0
23/08:30am 15.2 14.9 14.4 95 0.5 NE 9 11 5 6 1013.5 1013.4 0.0
23/08:20am 15.0 15.3 14.4 96 0.3 NE 6 9 3 5 1013.6 1013.5 0.0
23/08:00am 14.4 15.6 13.9 97 0.3 CALM 0 0 0 0 1013.6 1013.5 0.0
23/07:30am 13.2 14.0 12.7 97 0.3 CALM 0 0 0 0 1013.6 1013.5 0.0
23/07:00am 12.7 13.4 12.2 97 0.3 CALM 0 0 0 0 1013.6 1013.5 0.0
23/06:30am 11.8 12.2 11.2 96 0.3 CALM 0 0 0 0 1013.5 1013.4 0.0
23/06:00am 11.0 11.2 10.4 96 0.3 CALM 0 0 0 0 1013.2 1013.1 0.0
23/05:30am 11.8 12.2 11.2 96 0.3 CALM 0 0 0 0 1013.0 1012.9 0.0
23/05:00am 12.6 13.2 12.0 96 0.3 CALM 0 0 0 0 1013.0 1012.9 0.0
23/04:30am 13.0 13.8 12.4 96 0.3 CALM 0 0 0 0 1013.0 1012.9 0.0
23/04:00am 13.3 14.1 12.7 96 0.3 CALM 0 0 0 0 1013.3 1013.2 0.0
23/03:30am 13.2 14.0 12.6 96 0.3 CALM 0 0 0 0 1013.5 1013.4 0.0
23/03:00am 12.6 13.2 12.0 96 0.3 CALM 0 0 0 0 1013.7 1013.6 0.0
23/02:30am 12.4 13.0 11.8 96 0.3 CALM 0 0 0 0 1013.8 1013.7 0.0
23/02:00am 12.1 12.6 11.5 96 0.3 CALM 0 0 0 0 1014.1 1014.0 0.0
23/01:41am 12.7 13.4 12.1 96 0.3 CALM 0 0 0 0 1014.3 1014.2 0.0
23/01:30am 12.6 13.2 11.8 95 0.4 CALM 0 0 0 0 1014.4 1014.3 0.0
23/01:11am 12.4 12.9 11.6 95 0.4 CALM 0 0 0 0 1014.8 1014.7 0.0
23/01:06am 12.6 13.2 11.8 95 0.4 CALM 0 0 0 0 1014.9 1014.8 0.0
23/01:00am 12.3 12.8 11.5 95 0.4 CALM 0 0 0 0 1015.0 1014.9 0.0
23/12:30am 13.2 14.0 12.4 95 0.4 CALM 0 0 0 0 1015.2 1015.1 0.0
23/12:18am 13.5 14.0 12.7 95 0.4 WSW 2 7 1 4 1015.2 1015.1 0.0
23/12:00am 13.2 12.2 12.4 95 0.4 WSW 9 11 5 6 1015.5 1015.4 0.0
 
Date/Time
EDT
Temp
°C
App
Temp
°C
Dew
Point
°C
Rel
Hum
%
Delta-T
°C
Wind Press
QNH
hPa
Press
MSL
hPa
Rain since
9am
mm
Dir  Spd
km/h
Gust
km/h
Spd
kts
Gust
kts
22/11:30pm 13.3 13.3 12.5 95 0.4 WSW 4 7 2 4 1015.2 1015.1 0.0
22/11:00pm 13.2 13.1 12.1 93 0.6 WNW 4 6 2 3 1015.4 1015.3 0.0
22/10:30pm 14.1 15.1 13.1 94 0.6 CALM 0 0 0 0 1015.4 1015.3 0.0
22/10:00pm 14.1 13.7 13.0 93 0.6 W 7 9 4 5 1015.4 1015.3 0.0
22/09:44pm 14.3 15.2 13.0 92 0.7 CALM 0 6 0 3 1015.2 1015.1 0.0
22/09:30pm 14.9 16.0 13.6 92 0.7 CALM 0 0 0 0 1015.2 1015.1 0.0
22/09:26pm 15.0 16.2 13.7 92 0.7 CALM 0 0 0 0 1015.3 1015.2 0.0
22/09:00pm 15.5 15.6 14.0 91 0.8 N 6 9 3 5 1015.3 1015.2 0.0
22/08:30pm 15.9 17.1 13.9 88 1.1 CALM 0 0 0 0 1015.0 1014.9 0.0
22/08:00pm 17.2 15.9 14.7 85 1.4 NNE 15 19 8 10 1014.4 1014.3 0.0
22/07:30pm 17.7 15.7 15.0 84 1.6 NNE 19 24 10 13 1014.1 1014.0 0.0
22/07:00pm 18.0 15.9 15.1 83 1.7 NNE 20 26 11 14 1013.9 1013.8 0.0
22/06:30pm 18.4 15.4 14.9 80 2.0 NNE 24 33 13 18 1013.6 1013.5 0.0
22/06:00pm 19.1 15.5 15.2 78 2.3 NNE 28 35 15 19 1013.3 1013.2 0.0
22/05:30pm 19.4 14.9 14.9 75 2.6 NNE 32 43 17 23 1013.2 1013.1 0.0
22/05:00pm 19.7 16.0 14.9 74 2.8 NE 28 37 15 20 1013.4 1013.3 0.0
22/04:30pm 20.0 16.3 15.0 73 2.9 NE 28 35 15 19 1013.5 1013.4 0.0
22/04:00pm 20.3 16.7 15.3 73 3.0 NE 28 37 15 20 1013.7 1013.6 0.0
22/03:30pm 20.1 16.0 14.9 72 3.0 NE 30 39 16 21 1013.7 1013.6 0.0
22/03:00pm 20.1 16.3 14.7 71 3.2 NE 28 37 15 20 1013.8 1013.7 0.0
22/02:30pm 20.1 15.9 14.7 71 3.2 NE 30 39 16 21 1014.2 1014.1 0.0
22/02:00pm 20.1 17.1 14.9 72 3.0 NE 24 33 13 18 1014.5 1014.4 0.0
22/01:30pm 20.4 17.5 15.0 71 3.2 NE 24 35 13 19 1014.7 1014.6 0.0
22/01:00pm 20.1 17.2 15.1 73 2.9 NE 24 35 13 19 1014.7 1014.6 0.0
22/12:30pm 19.8 16.3 14.4 71 3.1 NE 26 32 14 17 1015.0 1014.9 0.0
22/12:00pm 20.0 16.7 14.1 69 3.4 NE 24 33 13 18 1015.4 1015.3 0.0
22/11:30am 19.7 16.4 13.9 69 3.3 NE 24 32 13 17 1015.8 1015.7 0.0
22/11:00am 19.5 16.3 13.2 67 3.6 NE 22 30 12 16 1016.3 1016.2 0.0
22/10:30am 19.7 17.0 13.4 67 3.6 NE 20 28 11 15 1016.5 1016.5 0.0
22/10:00am 18.8 15.7 12.3 66 3.6 NE 20 30 11 16 1016.7 1016.7 0.0
22/09:30am 18.9 16.9 11.5 62 4.1 N 13 22 7 12 1017.0 1017.0 0.0
22/09:00am 17.5 15.4 11.3 67 3.4 N 13 20 7 11 1017.1 1017.1 0.0
22/08:30am 15.7 13.3 11.3 75 2.4 N 15 19 8 10 1017.2 1017.2 0.0
22/08:00am 13.7 12.4 11.4 86 1.2 NNW 9 13 5 7 1017.1 1017.1 0.0
22/07:30am 11.6 10.6 11.0 96 0.3 NW 7 9 4 5 1017.0 1017.0 0.0
22/07:00am 9.1 7.6 8.5 96 0.3 NW 6 9 3 5 1017.0 1017.0 0.0
22/06:33am 7.5 6.8 6.9 96 0.3 CALM 0 0 0 0 1016.9 1016.9 0.0
22/06:30am 7.2 6.4 6.6 96 0.3 CALM 0 0 0 0 1016.9 1016.9 0.0
22/06:20am 7.0 5.0 6.4 96 0.3 NW 6 9 3 5 1016.8 1016.8 0.0
22/06:01am 7.4 6.7 6.8 96 0.3 CALM 0 0 0 0 1016.7 1016.7 0.0
22/06:00am 7.2 6.4 6.6 96 0.3 CALM 0 0 0 0 1016.7 1016.7 0.0
22/05:46am 7.6 6.9 7.0 96 0.3 CALM 0 0 0 0 1016.8 1016.8 0.0
22/05:35am 7.6 6.1 7.0 96 0.3 W 4 6 2 3 1016.9 1016.9 0.0
22/05:30am 7.1 5.9 6.4 95 0.3 W 2 6 1 3 1016.9 1016.9 0.0
22/05:00am 7.4 6.6 6.7 95 0.3 CALM 0 0 0 0 1017.0 1017.0 0.0
22/04:30am 7.6 6.5 6.9 95 0.3 NW 2 6 1 3 1017.0 1017.0 0.0
22/04:08am 8.0 7.4 7.2 95 0.4 CALM 0 0 0 0 1017.0 1017.0 0.0
22/04:06am 8.1 7.5 7.3 95 0.4 CALM 0 0 0 0 1017.0 1017.0 0.0
22/04:00am 8.1 7.5 7.3 95 0.4 CALM 0 0 0 0 1017.0 1017.0 0.0
22/03:32am 8.2 7.6 7.4 95 0.4 CALM 0 0 0 0 1017.2 1017.2 0.0
22/03:30am 8.3 7.7 7.5 95 0.4 CALM 0 0 0 0 1017.3 1017.3 0.0
22/03:13am 8.7 8.2 7.9 95 0.4 CALM 0 0 0 0 1017.3 1017.3 0.0
22/03:00am 8.3 7.7 7.5 95 0.4 CALM 0 0 0 0 1017.4 1017.4 0.0
22/02:57am 8.0 7.4 7.2 95 0.4 CALM 0 0 0 0 1017.4 1017.4 0.0
22/02:51am 8.3 7.7 7.5 95 0.4 CALM 0 0 0 0 1017.4 1017.4 0.0
22/02:30am 8.0 7.3 7.1 94 0.4 CALM 0 0 0 0 1017.5 1017.5 0.0
22/02:28am 8.1 7.5 7.2 94 0.4 CALM 0 0 0 0 1017.5 1017.5 0.0
22/02:00am 8.7 8.2 7.8 94 0.4 CALM 0 0 0 0 1017.7 1017.7 0.0
22/01:30am 9.3 9.0 8.5 95 0.4 CALM 0 0 0 0 1017.9 1017.9 0.0
22/01:00am 9.5 9.2 8.6 94 0.4 CALM 0 0 0 0 1018.1 1018.1 0.0
22/12:30am 9.9 9.7 9.0 94 0.4 CALM 0 0 0 0 1018.3 1018.3 0.0
22/12:00am 9.7 8.6 8.6 93 0.5 NW 4 7 2 4 1018.5 1018.5 0.0
 
Date/Time
EDT
Temp
°C
App
Temp
°C
Dew
Point
°C
Rel
Hum
%
Delta-T
°C
Wind Press
QNH
hPa
Press
MSL
hPa
Rain since
9am
mm
Dir  Spd
km/h
Gust
km/h
Spd
kts
Gust
kts
21/11:30pm 10.2 9.9 8.8 91 0.7 CALM 0 6 0 3 1018.6 1018.6 0.0
21/11:00pm 10.6 9.2 9.4 92 0.6 NW 7 9 4 5 1018.7 1018.7 0.0
21/10:30pm 11.1 9.7 9.5 90 0.8 NW 7 9 4 5 1019.0 1019.0 0.0
21/10:00pm 11.7 11.5 9.1 84 1.3 CALM 0 0 0 0 1019.1 1019.1 0.0
21/09:30pm 12.9 12.2 10.1 83 1.4 NNW 4 6 2 3 1018.8 1018.8 0.0
21/09:00pm 13.6 13.1 10.6 82 1.6 NNW 4 7 2 4 1018.7 1018.7 0.0
21/08:30pm 14.3 13.0 10.1 76 2.2 NNW 7 9 4 5 1018.4 1018.4 0.0
21/08:00pm 15.2 13.9 9.8 70 2.8 N 7 11 4 6 1018.2 1018.2 0.0
21/07:30pm 15.4 13.7 9.7 69 3.0 N 9 13 5 7 1018.1 1018.1 0.0
21/07:00pm 16.1 13.9 9.5 65 3.4 NNE 11 13 6 7 1017.6 1017.6 0.0
21/06:30pm 16.5 14.1 9.9 65 3.5 NE 13 15 7 8 1017.1 1017.1 0.0
21/06:00pm 16.6 14.0 9.3 62 3.8 ENE 13 15 7 8 1016.9 1016.9 0.0
21/05:30pm 17.0 14.4 9.2 60 4.0 ENE 13 15 7 8 1016.5 1016.5 0.0
21/05:00pm 17.1 14.5 9.5 61 4.0 E 13 15 7 8 1016.5 1016.5 0.0
21/04:30pm 17.2 14.7 9.6 61 4.0 E 13 17 7 9 1016.3 1016.2 0.0
21/04:00pm 17.8 14.8 9.2 57 4.5 E 15 19 8 10 1016.1 1016.0 0.0
21/03:30pm 17.4 14.7 9.1 58 4.3 E 13 19 7 10 1015.9 1015.8 0.0
21/03:00pm 18.0 15.2 10.1 60 4.2 E 15 19 8 10 1016.0 1015.9 0.0
21/02:30pm 18.2 14.8 9.0 55 4.8 E 17 20 9 11 1016.2 1016.1 0.0
21/02:00pm 17.8 14.7 8.9 56 4.6 ESE 15 19 8 10 1016.5 1016.5 0.0
21/01:30pm 17.0 13.9 8.7 58 4.3 ESE 15 19 8 10 1016.7 1016.7 0.0
21/01:00pm 17.2 14.1 8.9 58 4.3 ESE 15 20 8 11 1016.9 1016.9 0.0
21/12:30pm 17.4 14.4 9.3 59 4.2 E 15 19 8 10 1017.1 1017.1 0.0
21/12:00pm 17.1 14.3 8.5 57 4.4 ENE 13 17 7 9 1017.4 1017.4 0.0
21/11:30am 16.4 14.3 8.1 58 4.2 ENE 9 13 5 7 1017.8 1017.8 0.0
21/11:00am 15.8 13.5 7.6 58 4.1 E 9 13 5 7 1018.2 1018.2 0.0
21/10:30am 16.2 14.2 8.7 61 3.8 S 9 13 5 7 1018.1 1018.1 0.0
21/10:00am 15.7 13.8 8.9 64 3.5 SW 9 15 5 8 1018.1 1018.1 0.0
21/09:30am 15.1 12.9 9.5 69 2.9 SW 11 15 6 8 1017.9 1017.9 0.0
21/09:00am 14.8 12.2 9.4 70 2.8 SW 13 19 7 10 1017.6 1017.6 15.4
21/08:30am 14.2 12.5 10.0 76 2.2 SW 9 15 5 8 1017.4 1017.4 15.4
21/08:00am 13.5 12.4 10.5 82 1.6 WSW 7 11 4 6 1017.3 1017.3 15.4
21/07:30am 13.0 10.5 9.8 81 1.6 SSW 13 17 7 9 1017.1 1017.1 15.4
21/07:00am 12.3 9.2 9.0 80 1.7 SSW 15 20 8 11 1016.7 1016.7 15.4
21/06:30am 12.2 9.2 9.4 83 1.4 SW 15 20 8 11 1016.6 1016.6 15.4
21/06:00am 12.3 10.5 9.3 82 1.5 SSW 9 15 5 8 1016.5 1016.5 15.4
21/05:30am 12.6 10.2 10.1 85 1.3 S 13 15 7 8 1015.8 1015.7 15.4
21/05:00am 12.7 10.9 10.9 89 0.9 SSW 11 17 6 9 1015.4 1015.3 15.4
21/04:30am 12.8 11.6 11.5 92 0.7 SSW 9 13 5 7 1015.2 1015.1 15.2
21/04:00am 12.8 10.7 11.2 90 0.8 SSW 13 19 7 10 1015.2 1015.1 15.2
21/03:30am 12.9 10.5 11.5 91 0.7 S 15 19 8 10 1015.2 1015.1 15.2
21/03:16am 12.9 10.9 11.6 92 0.7 S 13 17 7 9 1015.3 1015.2 15.2
21/03:00am 13.0 10.7 11.7 92 0.7 S 15 20 8 11 1015.2 1015.1 15.2
21/02:30am 13.2 12.8 12.3 94 0.5 SSW 6 11 3 6 1015.3 1015.2 15.0
21/02:00am 13.2 13.5 12.3 94 0.5 SSW 2 9 1 5 1015.0 1014.9 15.0
21/01:30am 13.1 12.6 12.2 94 0.5 SW 6 7 3 4 1015.3 1015.2 15.0
21/01:00am 13.1 12.6 12.2 94 0.5 SW 6 7 3 4 1015.8 1015.7 15.0
21/12:30am 13.2 12.6 12.3 94 0.5 SW 7 11 4 6 1015.8 1015.7 15.0
21/12:00am 13.1 11.7 12.3 95 0.4 WSW 11 15 6 8 1016.3 1016.2 14.8
 
Date/Time
EDT
Temp
°C
App
Temp
°C
Dew
Point
°C
Rel
Hum
%
Delta-T
°C
Wind Press
QNH
hPa
Press
MSL
hPa
Rain since
9am
mm
Dir  Spd
km/h
Gust
km/h
Spd
kts
Gust
kts
20/11:30pm 13.1 11.7 12.3 95 0.4 WSW 11 19 6 10 1016.4 1016.4 14.6
20/11:00pm 13.1 11.4 12.3 95 0.4 WSW 13 19 7 10 1016.4 1016.4 14.4
20/10:35pm 13.1 11.3 12.2 94 0.5 WSW 13 17 7 9 1016.5 1016.5 14.0
20/10:30pm 13.0 11.2 12.1 94 0.5 W 13 19 7 10 1016.6 1016.6 13.8
20/10:29pm 13.1 11.3 12.2 94 0.5 W 13 19 7 10 1016.6 1016.6 13.6
20/10:13pm 13.2 12.2 12.3 94 0.5 W 9 17 5 9 1016.4 1016.4 12.8
20/10:00pm 13.3 12.3 12.4 94 0.5 WSW 9 11 5 6 1016.3 1016.2 12.0
20/09:52pm 13.3 12.7 12.4 94 0.5 WSW 7 11 4 6 1016.1 1016.0 11.4
20/09:30pm 13.3 11.5 12.2 93 0.6 WSW 13 17 7 9 1016.0 1015.9 11.0
20/09:24pm 13.2 11.8 12.1 93 0.6 WSW 11 19 6 10 1016.1 1016.0 11.0
20/09:00pm 13.5 11.7 12.2 92 0.7 SW 13 20 7 11 1015.8 1015.7 10.8
20/08:30pm 13.8 11.5 11.8 88 1.1 SSW 15 22 8 12 1015.0 1014.9 10.8

Latest Capital City Observations: Canberra | Sydney | Melbourne | Brisbane | Adelaide | Perth | Hobart | Darwin

Other Formats:

Comma delimited format used in spreadsheet applications
http://www.bom.gov.au/fwo/IDN60903/IDN60903.95937.axf

JavaScript Object Notation format (JSON) in row-major order
http://www.bom.gov.au/fwo/IDN60903/IDN60903.95937.json